Strona główna
METAR-TAF:

METAR-TAF

Lotnisko :

Chicago Executive Airport

Wheeling / Prospect Heights, Illinois, Stany Zjednoczone

Szerokość geograficzna: 42-07-15N, Długość geograficzna: 087-54-17W, wysokość: 197 m

Aktualna obserwacja pogody

Raport powstał 1 godzina i 5 minut temu, godzina 05:52 UTC
Cisza
Temperatura -8°C
Wilgotność 73%
Ciśnienie 1033 hPa
Widzialność: 16.1 km
bezchmurnie

METAR: KPWK 120552Z AUTO 00000KT 10SM CLR M08/M12 A3049 RMK AO2 SLP337 T10781122 11061 21083 410331100 56009

czas: 00:57 (06:57 UTC)


TAF: brakujący

Obserwacja i prognoza pogody dla ponad 4000 lotnisk (raport METAR i TAF).

Dostępne stacje oznaczono żółtymi i czerwonymi punktami na mapie.

Najedź kursorem aby zobaczyć nazwę stacji.

Kliknij aby zobaczyć obserwacje i prognozy pogody.

Aby zmienić mapę: kliknij na zielony przycisk z czarnym krzyżykiem, aby powiększyć; na zielony przycisk z myślnikiem, aby pomniejszyć; na zielone strzałki, aby przejść do map sąsiednich.


METAR-TAF: